createdAt,value
2023-05-20T00:02:18.445Z,24.70
2023-05-20T00:04:46.185Z,24.42
2023-05-20T00:07:13.721Z,25.20
2023-05-20T00:09:41.303Z,26.00
2023-05-20T00:12:08.851Z,25.67
2023-05-20T00:14:36.675Z,25.48
2023-05-20T00:17:04.253Z,26.88
2023-05-20T00:19:31.988Z,25.83
2023-05-20T00:21:59.577Z,26.08
2023-05-20T00:24:27.784Z,27.05
2023-05-20T00:26:55.282Z,27.90
2023-05-20T00:29:22.887Z,27.85
2023-05-20T00:31:50.564Z,27.98
2023-05-20T00:34:18.138Z,27.40
2023-05-20T00:36:45.699Z,28.15
2023-05-20T00:39:13.264Z,27.38
2023-05-20T00:41:40.990Z,28.02
2023-05-20T00:44:08.608Z,28.65
2023-05-20T00:46:36.446Z,27.15
2023-05-20T00:49:05.286Z,28.42
2023-05-20T00:51:33.866Z,28.98
2023-05-20T00:54:01.492Z,28.55
2023-05-20T00:56:30.040Z,28.80
2023-05-20T00:58:58.390Z,29.33
2023-05-20T01:01:26.008Z,29.55
2023-05-20T01:03:53.541Z,28.83
2023-05-20T01:06:21.547Z,26.95
2023-05-20T01:08:49.184Z,28.02
2023-05-20T01:11:29.142Z,30.17
2023-05-20T01:14:02.360Z,29.60
2023-05-20T01:16:34.230Z,29.58
2023-05-20T01:19:02.977Z,30.30
2023-05-20T01:21:31.664Z,30.95
2023-05-20T01:23:59.237Z,31.35
2023-05-20T01:26:28.088Z,32.67
2023-05-20T01:28:58.206Z,29.38
2023-05-20T01:31:32.782Z,29.85
2023-05-20T01:34:01.669Z,29.95
2023-05-20T01:36:31.536Z,29.40
2023-05-20T01:39:00.243Z,30.60
2023-05-20T01:41:30.358Z,28.23
2023-05-20T01:43:57.977Z,27.98
2023-05-20T01:46:25.840Z,30.02
2023-05-20T01:48:53.388Z,30.13
2023-05-20T01:51:21.146Z,33.88
2023-05-20T01:53:49.024Z,32.60
2023-05-20T01:56:16.599Z,33.60
2023-05-20T01:58:44.596Z,31.73
2023-05-20T02:01:12.186Z,33.13
2023-05-20T02:03:39.771Z,33.47
2023-05-20T02:06:07.291Z,33.40
2023-05-20T02:08:34.891Z,33.63
2023-05-20T02:11:02.600Z,33.33
2023-05-20T02:13:30.428Z,31.75
2023-05-20T02:15:58.152Z,31.73
2023-05-20T02:18:26.806Z,29.23
2023-05-20T02:20:54.564Z,31.20
2023-05-20T02:23:22.166Z,33.97
2023-05-20T02:25:49.676Z,35.25
2023-05-20T02:28:17.363Z,34.63
2023-05-20T02:30:44.964Z,34.63
2023-05-20T02:33:12.561Z,34.55
2023-05-20T02:35:40.715Z,35.75
2023-05-20T02:38:08.367Z,36.78
2023-05-20T02:40:37.563Z,37.42
2023-05-20T02:43:05.240Z,38.20
2023-05-20T02:45:35.415Z,37.80
2023-05-20T02:48:03.253Z,38.95
2023-05-20T02:50:32.389Z,40.58
2023-05-20T02:53:00.401Z,39.70
2023-05-20T02:55:28.439Z,41.17
2023-05-20T02:57:56.445Z,42.60
2023-05-20T03:00:24.794Z,41.70
2023-05-20T03:02:52.428Z,40.22
2023-05-20T03:05:20.060Z,41.80
2023-05-20T03:07:48.889Z,42.97
2023-05-20T03:10:16.453Z,42.95
2023-05-20T03:12:45.165Z,43.03
2023-05-20T03:15:12.724Z,42.33
2023-05-20T03:17:40.423Z,42.42
2023-05-20T03:20:08.574Z,40.55
2023-05-20T03:22:36.382Z,41.63
2023-05-20T03:25:05.615Z,39.85
2023-05-20T03:27:34.562Z,39.63
2023-05-20T03:30:03.613Z,36.67
2023-05-20T03:32:32.095Z,37.90
2023-05-20T03:35:00.199Z,33.88
2023-05-20T03:37:27.770Z,36.33
2023-05-20T03:39:55.593Z,34.70
2023-05-20T03:42:23.108Z,34.05
2023-05-20T03:44:51.163Z,33.28
2023-05-20T03:47:20.194Z,31.95
2023-05-20T03:49:47.932Z,33.47
2023-05-20T03:52:15.453Z,31.98
2023-05-20T03:54:43.138Z,34.03
2023-05-20T03:57:10.777Z,31.27
2023-05-20T03:59:38.713Z,31.70
2023-05-20T04:02:06.560Z,29.60
2023-05-20T04:04:34.304Z,32.45
2023-05-20T04:07:03.354Z,28.00
2023-05-20T04:09:31.641Z,29.52
2023-05-20T04:11:59.190Z,30.30
2023-05-20T04:14:26.770Z,28.38
2023-05-20T04:16:54.933Z,28.50
2023-05-20T04:19:24.357Z,28.10
2023-05-20T04:21:52.231Z,27.05
2023-05-20T04:24:19.859Z,26.73
2023-05-20T04:26:48.421Z,27.40
2023-05-20T04:29:16.227Z,28.35
2023-05-20T04:31:45.794Z,28.40
2023-05-20T04:34:15.201Z,27.50
2023-05-20T04:36:43.732Z,28.35
2023-05-20T04:39:11.342Z,27.35
2023-05-20T04:41:40.069Z,29.77
2023-05-20T04:44:07.573Z,27.55
2023-05-20T04:46:35.312Z,27.15
2023-05-20T04:49:04.609Z,28.00
2023-05-20T04:51:32.239Z,28.17
2023-05-20T04:53:59.851Z,29.92
2023-05-20T04:56:29.696Z,31.15
2023-05-20T04:58:57.407Z,32.15
2023-05-20T05:01:25.069Z,31.77
2023-05-20T05:03:52.726Z,33.20
2023-05-20T05:06:22.088Z,32.38
2023-05-20T05:08:50.319Z,33.10
2023-05-20T05:11:17.845Z,33.05
2023-05-20T05:13:46.705Z,33.25
2023-05-20T05:16:14.884Z,33.90
2023-05-20T05:18:43.327Z,34.40
2023-05-20T05:21:11.303Z,34.90
2023-05-20T05:23:38.995Z,33.42
2023-05-20T05:26:06.655Z,34.05
2023-05-20T05:28:34.193Z,34.22
2023-05-20T05:31:02.523Z,34.50
2023-05-20T05:33:30.960Z,33.42
2023-05-20T05:35:59.443Z,32.08
2023-05-20T05:38:27.563Z,33.67
2023-05-20T05:40:55.231Z,33.45
2023-05-20T05:43:23.460Z,35.45
2023-05-20T05:45:51.932Z,34.45
2023-05-20T05:48:19.444Z,35.45
2023-05-20T05:50:47.456Z,32.75
2023-05-20T05:53:17.218Z,32.88
2023-05-20T05:55:48.356Z,32.72
2023-05-20T05:58:17.744Z,30.40
2023-05-20T06:00:46.040Z,32.20
2023-05-20T06:03:13.755Z,32.75
2023-05-20T06:05:45.024Z,29.40
2023-05-20T06:08:13.240Z,29.92
2023-05-20T06:10:40.866Z,32.30
2023-05-20T06:13:08.485Z,30.80
2023-05-20T06:15:36.751Z,29.92
2023-05-20T06:18:04.574Z,29.23
2023-05-20T06:20:33.412Z,27.90
2023-05-20T06:23:01.096Z,29.85
2023-05-20T06:25:37.060Z,31.15
2023-05-20T06:28:05.123Z,29.40
2023-05-20T06:30:33.319Z,30.67
2023-05-20T06:33:01.660Z,31.13
2023-05-20T06:35:29.261Z,31.05
2023-05-20T06:37:57.014Z,31.38
2023-05-20T06:40:24.562Z,30.60
2023-05-20T06:42:52.218Z,30.92
2023-05-20T06:45:35.425Z,29.15
2023-05-20T06:48:20.426Z,30.95
2023-05-20T06:50:47.941Z,29.80
2023-05-20T06:53:15.538Z,28.02
2023-05-20T06:55:43.071Z,29.65
2023-05-20T06:58:11.280Z,29.77
2023-05-20T07:00:40.219Z,31.00
2023-05-20T07:03:08.169Z,28.30
2023-05-20T07:05:36.097Z,30.08
2023-05-20T07:08:04.349Z,28.67
2023-05-20T07:10:32.033Z,26.98
2023-05-20T07:12:59.674Z,25.83
2023-05-20T07:15:27.286Z,26.08
2023-05-20T07:17:54.923Z,25.50
2023-05-20T07:20:22.671Z,26.95
2023-05-20T07:22:51.187Z,27.38
2023-05-20T07:25:32.177Z,26.00
2023-05-20T07:28:00.741Z,26.05
2023-05-20T07:30:28.741Z,24.17
2023-05-20T07:33:19.407Z,24.08
2023-05-20T07:35:47.895Z,23.83
2023-05-20T07:38:15.862Z,23.77
2023-05-20T07:40:45.650Z,25.70
2023-05-20T07:43:14.809Z,25.42
2023-05-20T07:45:43.062Z,26.55
2023-05-20T07:48:13.161Z,27.30
2023-05-20T07:50:41.032Z,25.58
2023-05-20T07:53:09.772Z,26.35
2023-05-20T07:55:37.352Z,24.48
2023-05-20T07:58:06.294Z,24.25
2023-05-20T08:00:36.015Z,24.33
2023-05-20T08:03:08.294Z,22.63
2023-05-20T08:05:59.141Z,24.23
2023-05-20T08:08:29.169Z,24.10
2023-05-20T08:11:04.280Z,23.42
2023-05-20T08:13:32.773Z,23.50
2023-05-20T08:16:04.177Z,23.92
2023-05-20T08:18:36.675Z,23.13
2023-05-20T08:21:08.161Z,25.07
2023-05-20T08:23:40.192Z,24.08
2023-05-20T08:26:08.410Z,24.23
2023-05-20T08:28:39.108Z,24.58
2023-05-20T08:31:09.280Z,24.33
2023-05-20T08:33:36.774Z,24.48
2023-05-20T08:36:04.668Z,24.33
2023-05-20T08:38:32.226Z,25.27
2023-05-20T08:41:01.368Z,23.25
2023-05-20T08:43:32.678Z,22.42
2023-05-20T08:46:05.519Z,21.73
2023-05-20T08:48:35.975Z,23.08
2023-05-20T08:51:04.890Z,21.85
2023-05-20T08:53:32.467Z,20.90
2023-05-20T08:56:03.348Z,22.23
2023-05-20T08:58:32.941Z,20.65
2023-05-20T09:01:01.103Z,20.80
2023-05-20T09:03:29.045Z,20.70
2023-05-20T09:06:17.471Z,22.35
2023-05-20T09:08:45.072Z,22.42
2023-05-20T09:11:13.361Z,21.90
2023-05-20T09:13:40.861Z,21.23
2023-05-20T09:16:11.174Z,20.20
2023-05-20T09:18:40.397Z,20.00
2023-05-20T09:21:08.119Z,21.42
2023-05-20T09:23:38.825Z,21.30
2023-05-20T09:26:07.014Z,20.15
2023-05-20T09:28:36.167Z,20.45
2023-05-20T09:31:06.812Z,18.40
2023-05-20T09:33:35.848Z,18.60
2023-05-20T09:36:04.839Z,20.10
2023-05-20T09:38:39.137Z,19.80
2023-05-20T09:41:14.131Z,21.67
2023-05-20T09:43:42.131Z,21.55
2023-05-20T09:46:11.030Z,22.27
2023-05-20T09:48:40.049Z,20.88
2023-05-20T09:51:08.200Z,23.00
2023-05-20T09:53:36.341Z,22.15
2023-05-20T09:56:04.282Z,20.73
2023-05-20T09:58:36.065Z,21.10
2023-05-20T10:01:03.985Z,20.58
2023-05-20T10:03:33.601Z,21.48
2023-05-20T10:06:10.447Z,21.17
2023-05-20T10:09:10.362Z,20.33
2023-05-20T10:11:56.543Z,21.45
2023-05-20T10:14:27.104Z,20.95
2023-05-20T10:17:09.139Z,20.27
2023-05-20T10:19:36.953Z,21.00
2023-05-20T10:22:06.752Z,28.88
2023-05-20T10:24:44.498Z,20.52
2023-05-20T10:27:15.875Z,20.50
2023-05-20T10:30:01.388Z,21.08
2023-05-20T10:32:33.464Z,20.23
2023-05-20T10:35:05.927Z,19.00
2023-05-20T10:37:45.245Z,18.48
2023-05-20T10:40:18.315Z,16.25
2023-05-20T10:42:46.448Z,17.80
2023-05-20T10:45:29.098Z,17.33
2023-05-20T10:47:58.610Z,19.42
2023-05-20T10:50:37.436Z,18.42
2023-05-20T10:53:09.380Z,17.33
2023-05-20T10:55:42.268Z,17.73
2023-05-20T10:58:10.369Z,17.98
2023-05-20T11:00:39.321Z,18.83
2023-05-20T11:03:07.775Z,18.35
2023-05-20T11:05:36.440Z,18.85
2023-05-20T11:08:16.971Z,18.98
2023-05-20T11:10:57.271Z,18.75
2023-05-20T11:13:25.879Z,18.17
2023-05-20T11:15:53.758Z,18.55
2023-05-20T11:18:21.908Z,18.88
2023-05-20T11:20:49.740Z,18.02
2023-05-20T11:23:17.478Z,18.00
2023-05-20T11:25:45.017Z,18.63
2023-05-20T11:28:15.372Z,19.15
2023-05-20T11:30:43.907Z,19.13
2023-05-20T11:33:16.101Z,19.02
2023-05-20T11:35:49.653Z,17.77
2023-05-20T11:38:18.151Z,17.55
2023-05-20T11:40:54.006Z,17.67
2023-05-20T11:43:23.330Z,18.00
2023-05-20T11:45:56.411Z,17.67
2023-05-20T11:48:24.641Z,17.33
2023-05-20T11:50:54.500Z,17.45
2023-05-20T11:53:24.416Z,17.05
2023-05-20T11:56:00.181Z,17.17
2023-05-20T11:58:31.598Z,16.50
2023-05-20T12:01:09.607Z,16.20
2023-05-20T12:03:47.117Z,16.55
2023-05-20T12:06:14.959Z,17.35
2023-05-20T12:08:42.700Z,16.42
2023-05-20T12:11:10.363Z,17.15
2023-05-20T12:13:38.505Z,15.80
2023-05-20T12:16:06.507Z,16.85
2023-05-20T12:18:34.375Z,16.65
2023-05-20T12:21:02.271Z,16.95
2023-05-20T12:23:34.198Z,16.30
2023-05-20T12:26:02.067Z,15.68
2023-05-20T12:28:29.586Z,17.90
2023-05-20T12:30:57.081Z,18.10
2023-05-20T12:33:24.765Z,18.45
2023-05-20T12:35:52.188Z,17.83
2023-05-20T12:38:20.197Z,18.75
2023-05-20T12:40:47.797Z,17.65
2023-05-20T12:43:15.344Z,17.17
2023-05-20T12:45:42.880Z,18.50
2023-05-20T12:48:10.494Z,18.23
2023-05-20T12:50:38.183Z,19.52
2023-05-20T12:53:05.899Z,18.17
2023-05-20T12:55:33.412Z,17.45
2023-05-20T12:58:01.176Z,17.95
2023-05-20T13:00:29.277Z,18.63
2023-05-20T13:02:56.910Z,18.23
2023-05-20T13:05:24.550Z,17.92
2023-05-20T13:07:52.180Z,18.15
2023-05-20T13:10:20.139Z,17.95
2023-05-20T13:12:47.862Z,18.38
2023-05-20T13:15:15.716Z,16.92
2023-05-20T13:17:43.360Z,16.45
2023-05-20T13:20:12.033Z,16.45
2023-05-20T13:22:39.610Z,17.13
2023-05-20T13:25:07.968Z,16.63
2023-05-20T13:27:35.681Z,16.40
2023-05-20T13:30:04.299Z,16.88
2023-05-20T13:32:31.791Z,16.25
2023-05-20T13:34:59.948Z,17.17
2023-05-20T13:37:27.567Z,17.67
2023-05-20T13:39:55.220Z,16.38
2023-05-20T13:42:22.855Z,16.13
2023-05-20T13:44:50.410Z,14.38
2023-05-20T13:47:17.943Z,14.95
2023-05-20T13:49:45.566Z,15.23
2023-05-20T13:52:13.055Z,14.25
2023-05-20T13:54:43.098Z,14.45
2023-05-20T13:57:10.798Z,14.18
2023-05-20T13:59:38.795Z,14.18
2023-05-20T14:02:07.203Z,14.95
2023-05-20T14:04:38.408Z,14.70
2023-05-20T14:07:09.066Z,14.43
2023-05-20T14:09:37.320Z,14.57
2023-05-20T14:12:05.906Z,14.85
2023-05-20T14:14:33.489Z,13.77
2023-05-20T14:17:01.149Z,14.07
2023-05-20T14:19:31.606Z,14.93
2023-05-20T14:22:01.705Z,14.93
2023-05-20T14:24:29.511Z,14.23
2023-05-20T14:26:57.245Z,14.45
2023-05-20T14:29:24.847Z,13.95
2023-05-20T14:31:52.440Z,15.60
2023-05-20T14:34:19.974Z,14.63
2023-05-20T14:36:47.918Z,15.23
2023-05-20T14:39:15.527Z,14.65
2023-05-20T14:41:42.978Z,13.98
2023-05-20T14:44:10.606Z,15.20
2023-05-20T14:46:38.287Z,14.10
2023-05-20T14:49:05.958Z,14.50
2023-05-20T14:51:33.522Z,13.70
2023-05-20T14:54:01.157Z,14.52
2023-05-20T14:56:28.893Z,14.75
2023-05-20T14:58:56.452Z,15.52
2023-05-20T15:01:24.205Z,14.45
2023-05-20T15:03:51.772Z,14.77
2023-05-20T15:06:19.977Z,15.38
2023-05-20T15:08:47.721Z,14.38
2023-05-20T15:11:15.270Z,14.43
2023-05-20T15:13:44.273Z,15.02
2023-05-20T15:16:12.001Z,14.63
2023-05-20T15:18:39.701Z,14.63
2023-05-20T15:21:07.236Z,14.38
2023-05-20T15:23:34.712Z,13.82
2023-05-20T15:26:02.478Z,13.65
2023-05-20T15:28:29.986Z,14.45
2023-05-20T15:30:57.552Z,15.18
2023-05-20T15:33:25.343Z,14.95
2023-05-20T15:35:52.954Z,15.05
2023-05-20T15:38:20.641Z,15.52
2023-05-20T15:40:50.374Z,15.48
2023-05-20T15:43:18.708Z,17.25
2023-05-20T15:45:49.414Z,16.10
2023-05-20T15:48:17.310Z,17.15
2023-05-20T15:50:44.921Z,17.00
2023-05-20T15:53:14.719Z,17.77
2023-05-20T15:55:43.034Z,18.15
2023-05-20T15:58:11.660Z,17.17
2023-05-20T16:00:39.425Z,17.02
2023-05-20T16:03:07.067Z,18.52
2023-05-20T16:05:34.913Z,16.52
2023-05-20T16:08:02.529Z,18.42
2023-05-20T16:10:33.144Z,18.98
2023-05-20T16:13:01.703Z,18.52
2023-05-20T16:15:35.691Z,18.95
2023-05-20T16:18:03.695Z,17.90
2023-05-20T16:20:31.356Z,18.77
2023-05-20T16:22:58.921Z,19.30
2023-05-20T16:25:26.710Z,18.65
2023-05-20T16:27:54.233Z,18.80
2023-05-20T16:30:21.774Z,19.50
2023-05-20T16:32:52.096Z,19.65
2023-05-20T16:35:19.621Z,19.05
2023-05-20T16:37:47.230Z,19.33
2023-05-20T16:40:14.773Z,19.83
2023-05-20T16:42:44.088Z,18.45
2023-05-20T16:45:11.992Z,20.00
2023-05-20T16:47:39.562Z,19.38
2023-05-20T16:50:07.783Z,19.25
2023-05-20T16:52:35.915Z,20.05
2023-05-20T16:55:04.830Z,19.00
2023-05-20T16:57:32.717Z,19.38
2023-05-20T17:00:00.516Z,19.30
2023-05-20T17:02:28.153Z,19.73
2023-05-20T17:04:55.658Z,20.17
2023-05-20T17:07:23.199Z,19.02
2023-05-20T17:09:50.756Z,19.10
2023-05-20T17:12:18.390Z,20.13
2023-05-20T17:14:46.167Z,18.67
2023-05-20T17:17:15.165Z,20.38
2023-05-20T17:19:42.949Z,19.35
2023-05-20T17:22:10.550Z,19.23
2023-05-20T17:24:38.037Z,18.55
2023-05-20T17:27:06.378Z,18.98
2023-05-20T17:29:33.962Z,18.48
2023-05-20T17:32:01.556Z,18.90
2023-05-20T17:34:29.961Z,19.23
2023-05-20T17:36:57.798Z,18.13
2023-05-20T17:39:25.261Z,18.25
2023-05-20T17:41:52.733Z,18.35
2023-05-20T17:44:20.346Z,19.17
2023-05-20T17:46:48.845Z,18.05
2023-05-20T17:49:17.017Z,17.73
2023-05-20T17:51:46.209Z,17.77
2023-05-20T17:54:14.086Z,19.30
2023-05-20T17:56:43.467Z,19.33
2023-05-20T17:59:11.017Z,18.35
2023-05-20T18:01:39.025Z,18.85
2023-05-20T18:04:06.840Z,18.92
2023-05-20T18:06:34.869Z,19.52
2023-05-20T18:09:04.865Z,18.70
2023-05-20T18:11:33.527Z,19.15
2023-05-20T18:14:02.292Z,18.95
2023-05-20T18:16:30.838Z,19.90
2023-05-20T18:18:58.640Z,20.10
2023-05-20T18:21:26.625Z,20.77
2023-05-20T18:23:54.621Z,19.88
2023-05-20T18:26:22.750Z,21.55
2023-05-20T18:28:50.263Z,19.60
2023-05-20T18:31:17.869Z,20.38
2023-05-20T18:33:45.734Z,20.48
2023-05-20T18:36:13.369Z,19.77
2023-05-20T18:38:41.935Z,19.98
2023-05-20T18:41:09.617Z,19.63
2023-05-20T18:43:37.132Z,20.30
2023-05-20T18:46:04.747Z,20.38
2023-05-20T18:48:32.320Z,20.10
2023-05-20T18:50:59.932Z,20.35
2023-05-20T18:53:27.548Z,21.67
2023-05-20T18:55:57.014Z,20.58
2023-05-20T18:58:24.598Z,21.15
2023-05-20T19:00:52.154Z,20.10
2023-05-20T19:03:19.878Z,20.27
2023-05-20T19:05:47.388Z,19.98
2023-05-20T19:08:15.888Z,21.95
2023-05-20T19:10:43.553Z,20.33
2023-05-20T19:13:11.277Z,19.58
2023-05-20T19:15:38.807Z,20.00
2023-05-20T19:18:06.546Z,19.88
2023-05-20T19:20:34.912Z,19.58
2023-05-20T19:23:03.186Z,19.70
2023-05-20T19:25:30.797Z,18.25
2023-05-20T19:27:58.271Z,18.90
2023-05-20T19:30:26.009Z,19.77
2023-05-20T19:32:53.533Z,18.27
2023-05-20T19:35:21.539Z,19.27
2023-05-20T19:37:49.092Z,20.58
2023-05-20T19:40:16.699Z,19.38
2023-05-20T19:42:44.449Z,19.92
2023-05-20T19:45:12.086Z,19.70
2023-05-20T19:47:39.902Z,20.25
2023-05-20T19:50:08.531Z,19.30
2023-05-20T19:52:36.262Z,19.35
2023-05-20T19:55:04.092Z,19.75
2023-05-20T19:57:31.977Z,21.10
2023-05-20T19:59:59.496Z,21.10
2023-05-20T20:02:27.023Z,21.13
2023-05-20T20:04:55.443Z,20.42
2023-05-20T20:07:23.956Z,21.63
2023-05-20T20:09:55.270Z,21.75
2023-05-20T20:12:23.758Z,20.67
2023-05-20T20:14:52.350Z,20.83
2023-05-20T20:17:22.104Z,20.95
2023-05-20T20:19:53.365Z,20.50
2023-05-20T20:22:21.271Z,21.42
2023-05-20T20:24:49.974Z,21.65
2023-05-20T20:27:19.366Z,20.52
2023-05-20T20:29:46.914Z,20.83
2023-05-20T20:32:14.452Z,19.60
2023-05-20T20:34:42.087Z,19.73
2023-05-20T20:37:10.192Z,20.10
2023-05-20T20:39:37.604Z,20.77
2023-05-20T20:42:05.511Z,20.83
2023-05-20T20:44:33.524Z,19.67
2023-05-20T20:47:04.371Z,21.25
2023-05-20T20:49:32.349Z,20.52
2023-05-20T20:51:59.886Z,21.02
2023-05-20T20:54:27.537Z,22.52
2023-05-20T20:56:56.843Z,22.58
2023-05-20T20:59:27.011Z,22.70
2023-05-20T21:01:55.264Z,23.10
2023-05-20T21:04:22.869Z,24.35
2023-05-20T21:06:51.125Z,24.73
2023-05-20T21:09:18.708Z,23.80
2023-05-20T21:11:49.382Z,25.13
2023-05-20T21:14:17.144Z,23.45
2023-05-20T21:16:44.893Z,25.00
2023-05-20T21:19:12.411Z,23.52
2023-05-20T21:21:39.926Z,24.38
2023-05-20T21:24:07.506Z,24.65
2023-05-20T21:26:35.016Z,24.48
2023-05-20T21:29:02.688Z,25.77
2023-05-20T21:31:30.347Z,24.40
2023-05-20T21:33:57.920Z,23.60
2023-05-20T21:36:25.635Z,24.83
2023-05-20T21:38:53.189Z,23.60
2023-05-20T21:41:21.597Z,25.45
2023-05-20T21:43:49.109Z,24.83
2023-05-20T21:46:16.729Z,25.17
2023-05-20T21:48:44.507Z,25.40
2023-05-20T21:51:12.083Z,25.48
2023-05-20T21:53:39.507Z,24.85
2023-05-20T21:56:07.283Z,25.15
2023-05-20T21:58:40.810Z,27.13
2023-05-20T22:01:12.020Z,26.92
2023-05-20T22:03:40.230Z,25.98
2023-05-20T22:06:07.889Z,26.83
2023-05-20T22:08:35.456Z,28.00
2023-05-20T22:11:07.491Z,27.45
2023-05-20T22:13:36.347Z,25.90
2023-05-20T22:16:05.083Z,26.33
2023-05-20T22:18:32.931Z,26.00
2023-05-20T22:21:01.292Z,25.98
2023-05-20T22:23:29.263Z,26.30
2023-05-20T22:25:57.086Z,24.88
2023-05-20T22:28:26.389Z,25.63
2023-05-20T22:30:54.863Z,25.88
2023-05-20T22:33:23.103Z,25.05
2023-05-20T22:35:51.621Z,24.80
2023-05-20T22:38:19.759Z,24.65
2023-05-20T22:40:47.276Z,24.08
2023-05-20T22:43:16.646Z,23.50
2023-05-20T22:45:44.268Z,24.13
2023-05-20T22:48:12.600Z,23.88
2023-05-20T22:50:40.459Z,24.65
2023-05-20T22:53:08.026Z,24.05
2023-05-20T22:55:38.898Z,23.15
2023-05-20T22:58:08.066Z,23.63
2023-05-20T23:00:36.071Z,24.02
2023-05-20T23:03:03.671Z,24.65
2023-05-20T23:05:31.890Z,24.23
2023-05-20T23:07:59.786Z,23.10
2023-05-20T23:10:27.333Z,23.10
2023-05-20T23:12:54.878Z,23.05
2023-05-20T23:15:25.339Z,23.23
2023-05-20T23:17:53.048Z,22.95
2023-05-20T23:20:22.422Z,24.92
2023-05-20T23:22:50.080Z,24.85
2023-05-20T23:25:17.732Z,25.40
2023-05-20T23:27:45.671Z,25.48
2023-05-20T23:30:13.287Z,25.33
2023-05-20T23:32:40.863Z,24.85
2023-05-20T23:35:11.792Z,24.20
2023-05-20T23:37:41.218Z,23.75
2023-05-20T23:40:12.107Z,24.17
2023-05-20T23:42:40.168Z,23.45
2023-05-20T23:45:08.066Z,23.60
2023-05-20T23:47:36.718Z,23.48
2023-05-20T23:50:04.448Z,23.30
2023-05-20T23:52:32.025Z,23.60
2023-05-20T23:55:00.347Z,22.95
2023-05-20T23:57:27.994Z,22.25
2023-05-20T23:59:55.628Z,22.98
